createdAt,value
2023-03-30T00:02:06.853Z,64.33
2023-03-30T00:04:37.584Z,64.26
2023-03-30T00:07:05.762Z,64.27
2023-03-30T00:09:34.268Z,64.37
2023-03-30T00:12:03.716Z,64.04
2023-03-30T00:14:37.491Z,64.19
2023-03-30T00:17:05.349Z,64.04
2023-03-30T00:19:33.123Z,63.95
2023-03-30T00:22:00.942Z,64.13
2023-03-30T00:24:28.747Z,64.11
2023-03-30T00:26:56.565Z,64.79
2023-03-30T00:29:24.401Z,64.60
2023-03-30T00:31:53.764Z,64.70
2023-03-30T00:34:21.659Z,65.48
2023-03-30T00:36:49.520Z,65.62
2023-03-30T00:39:18.987Z,65.83
2023-03-30T00:41:47.061Z,65.63
2023-03-30T00:44:48.198Z,65.92
2023-03-30T00:47:17.687Z,65.86
2023-03-30T00:49:45.903Z,65.96
2023-03-30T00:52:19.448Z,66.29
2023-03-30T00:54:48.535Z,66.45
2023-03-30T00:57:16.651Z,66.52
2023-03-30T00:59:44.573Z,66.57
2023-03-30T01:02:13.243Z,66.78
2023-03-30T01:04:43.038Z,66.50
2023-03-30T01:07:12.472Z,66.84
2023-03-30T01:09:40.875Z,67.03
2023-03-30T01:12:08.906Z,67.06
2023-03-30T01:14:37.062Z,67.14
2023-03-30T01:17:13.576Z,66.53
2023-03-30T01:19:58.952Z,66.35
2023-03-30T01:22:50.759Z,66.29
2023-03-30T01:25:36.785Z,66.28
2023-03-30T01:28:24.320Z,66.10
2023-03-30T01:31:22.015Z,66.38
2023-03-30T01:34:26.291Z,65.91
2023-03-30T01:37:14.756Z,65.74
2023-03-30T01:39:51.861Z,65.26
2023-03-30T01:42:22.636Z,65.34
2023-03-30T01:44:55.274Z,64.34
2023-03-30T01:47:25.275Z,63.94
2023-03-30T01:49:58.557Z,64.03
2023-03-30T01:52:28.960Z,63.62
2023-03-30T01:55:00.494Z,62.84
2023-03-30T01:57:32.994Z,61.73
2023-03-30T02:00:12.048Z,61.79
2023-03-30T02:02:42.224Z,61.47
2023-03-30T02:05:11.439Z,61.22
2023-03-30T02:07:40.934Z,61.25
2023-03-30T02:10:12.140Z,61.51
2023-03-30T02:12:40.203Z,61.27
2023-03-30T02:15:11.218Z,61.45
2023-03-30T02:17:39.881Z,61.64
2023-03-30T02:20:10.665Z,61.51
2023-03-30T02:22:38.509Z,62.12
2023-03-30T02:25:07.946Z,60.59
2023-03-30T02:27:38.115Z,58.24
2023-03-30T02:30:07.838Z,56.21
2023-03-30T02:32:41.680Z,56.21
2023-03-30T02:35:28.448Z,54.82
2023-03-30T02:38:12.577Z,55.32
2023-03-30T02:40:46.009Z,55.09
2023-03-30T02:43:37.485Z,56.80
2023-03-30T02:46:17.358Z,57.29
2023-03-30T02:48:55.011Z,57.65
2023-03-30T02:51:35.430Z,59.35
2023-03-30T02:54:11.313Z,59.95
2023-03-30T02:56:43.617Z,60.86
2023-03-30T02:59:17.068Z,61.59
2023-03-30T03:01:47.914Z,62.15
2023-03-30T03:04:16.658Z,62.58
2023-03-30T03:06:44.515Z,62.81
2023-03-30T03:09:12.447Z,62.96
2023-03-30T03:11:40.234Z,63.26
2023-03-30T03:14:12.535Z,63.63
2023-03-30T03:16:42.230Z,63.64
2023-03-30T03:19:10.099Z,63.08
2023-03-30T03:21:38.211Z,62.06
2023-03-30T03:24:06.636Z,61.90
2023-03-30T03:26:34.454Z,61.61
2023-03-30T03:29:02.289Z,61.13
2023-03-30T03:31:30.153Z,61.15
2023-03-30T03:33:59.312Z,61.63
2023-03-30T03:36:27.117Z,62.39
2023-03-30T03:38:55.227Z,63.34
2023-03-30T03:41:23.044Z,63.94
2023-03-30T03:43:51.084Z,64.37
2023-03-30T03:46:18.970Z,64.91
2023-03-30T03:48:46.845Z,65.32
2023-03-30T03:51:16.108Z,65.34
2023-03-30T03:53:43.988Z,65.72
2023-03-30T03:56:12.719Z,65.72
2023-03-30T03:58:40.558Z,66.38
2023-03-30T04:01:08.689Z,66.53
2023-03-30T04:03:36.708Z,66.66
2023-03-30T04:06:04.547Z,67.20
2023-03-30T04:08:33.830Z,67.37
2023-03-30T04:11:07.983Z,67.64
2023-03-30T04:13:36.050Z,67.80
2023-03-30T04:16:04.168Z,68.09
2023-03-30T04:18:33.533Z,67.64
2023-03-30T04:21:03.421Z,67.38
2023-03-30T04:23:33.674Z,67.22
2023-03-30T04:26:03.318Z,67.54
2023-03-30T04:28:32.919Z,67.43
2023-03-30T04:31:01.212Z,66.92
2023-03-30T04:33:29.013Z,65.75
2023-03-30T04:35:57.247Z,65.38
2023-03-30T04:38:25.172Z,65.11
2023-03-30T04:40:53.772Z,64.54
2023-03-30T04:43:23.890Z,64.62
2023-03-30T04:45:52.614Z,64.42
2023-03-30T04:48:21.655Z,64.59
2023-03-30T04:50:51.078Z,64.82
2023-03-30T04:53:19.907Z,65.10
2023-03-30T04:55:49.590Z,65.75
2023-03-30T04:58:18.040Z,65.25
2023-03-30T05:00:47.450Z,66.00
2023-03-30T05:03:15.485Z,66.77
2023-03-30T05:05:43.410Z,67.03
2023-03-30T05:08:11.318Z,67.40
2023-03-30T05:10:39.137Z,67.82
2023-03-30T05:13:06.954Z,68.17
2023-03-30T05:15:34.795Z,68.51
2023-03-30T05:18:04.089Z,68.72
2023-03-30T05:20:32.440Z,69.32
2023-03-30T05:23:00.410Z,70.24
2023-03-30T05:25:28.307Z,71.26
2023-03-30T05:27:56.081Z,71.24
2023-03-30T05:30:23.980Z,72.18
2023-03-30T05:32:51.841Z,72.62
2023-03-30T05:35:21.553Z,72.41
2023-03-30T05:37:49.830Z,73.56
2023-03-30T05:40:18.326Z,73.81
2023-03-30T05:42:46.124Z,73.92
2023-03-30T05:45:14.049Z,74.14
2023-03-30T05:47:41.876Z,74.52
2023-03-30T05:50:11.489Z,74.84
2023-03-30T05:52:41.281Z,74.90
2023-03-30T05:55:09.577Z,75.20
2023-03-30T05:57:37.415Z,75.51
2023-03-30T06:00:10.295Z,75.61
2023-03-30T06:02:38.541Z,76.42
2023-03-30T06:05:08.374Z,76.52
2023-03-30T06:07:37.554Z,77.21
2023-03-30T06:10:08.403Z,77.42
2023-03-30T06:12:36.254Z,78.06
2023-03-30T06:15:05.061Z,78.22
2023-03-30T06:17:32.925Z,78.51
2023-03-30T06:20:01.178Z,78.33
2023-03-30T06:22:31.404Z,79.05
2023-03-30T06:24:59.780Z,78.65
2023-03-30T06:27:31.634Z,79.99
2023-03-30T06:29:59.494Z,80.42
2023-03-30T06:32:27.449Z,80.84
2023-03-30T06:34:55.286Z,80.76
2023-03-30T06:37:23.217Z,81.31
2023-03-30T06:39:50.997Z,81.52
2023-03-30T06:42:18.810Z,82.39
2023-03-30T06:44:49.837Z,81.84
2023-03-30T06:47:18.980Z,82.59
2023-03-30T06:49:46.811Z,82.79
2023-03-30T06:52:14.612Z,83.11
2023-03-30T06:54:42.390Z,83.51
2023-03-30T06:57:10.264Z,83.62
2023-03-30T06:59:38.051Z,83.68
2023-03-30T07:02:07.426Z,83.98
2023-03-30T07:04:35.734Z,83.77
2023-03-30T07:07:03.558Z,84.00
2023-03-30T07:09:31.483Z,84.22
2023-03-30T07:11:59.308Z,84.06
2023-03-30T07:14:27.283Z,84.35
2023-03-30T07:16:55.191Z,84.50
2023-03-30T07:19:24.543Z,83.96
2023-03-30T07:21:52.427Z,83.77
2023-03-30T07:24:20.429Z,83.45
2023-03-30T07:26:48.253Z,83.55
2023-03-30T07:29:16.738Z,83.36
2023-03-30T07:31:44.779Z,83.23
2023-03-30T07:34:12.738Z,82.77
2023-03-30T07:36:41.984Z,82.31
2023-03-30T07:39:09.848Z,82.76
2023-03-30T07:41:40.740Z,82.08
2023-03-30T07:44:08.709Z,81.84
2023-03-30T07:46:36.615Z,81.66
2023-03-30T07:49:04.437Z,81.53
2023-03-30T07:51:32.698Z,81.64
2023-03-30T07:54:02.157Z,81.75
2023-03-30T07:56:30.308Z,81.79
2023-03-30T07:58:59.605Z,82.17
2023-03-30T08:01:29.459Z,81.99
2023-03-30T08:03:57.355Z,82.50
2023-03-30T08:06:25.294Z,82.61
2023-03-30T08:08:53.086Z,82.57
2023-03-30T08:11:22.515Z,82.28
2023-03-30T08:13:50.349Z,82.74
2023-03-30T08:16:18.307Z,82.78
2023-03-30T08:18:47.268Z,82.76
2023-03-30T08:21:15.119Z,82.55
2023-03-30T08:23:42.927Z,82.42
2023-03-30T08:26:10.904Z,82.22
2023-03-30T08:28:40.085Z,81.58
2023-03-30T08:31:10.902Z,81.30
2023-03-30T08:33:39.574Z,81.37
2023-03-30T08:36:07.674Z,81.10
2023-03-30T08:38:35.588Z,81.07
2023-03-30T08:41:03.793Z,80.50
2023-03-30T08:43:51.829Z,80.49
2023-03-30T08:46:20.733Z,80.36
2023-03-30T08:48:49.497Z,79.74
2023-03-30T08:51:24.721Z,79.75
2023-03-30T08:53:56.583Z,79.13
2023-03-30T08:56:27.714Z,79.27
2023-03-30T08:59:05.725Z,79.33
2023-03-30T09:01:38.098Z,79.34
2023-03-30T09:04:14.195Z,79.86
2023-03-30T09:06:48.044Z,80.14
2023-03-30T09:09:18.801Z,80.51
2023-03-30T09:11:47.736Z,80.62
2023-03-30T09:14:23.047Z,80.56
2023-03-30T09:16:55.298Z,80.90
2023-03-30T09:19:26.894Z,80.87
2023-03-30T09:21:55.815Z,80.88
2023-03-30T09:24:26.727Z,81.32
2023-03-30T09:27:00.034Z,80.98
2023-03-30T09:29:31.570Z,81.29
2023-03-30T09:32:05.868Z,81.29
2023-03-30T09:34:40.391Z,80.81
2023-03-30T09:37:11.583Z,80.65
2023-03-30T09:39:39.970Z,80.77
2023-03-30T09:42:23.027Z,80.30
2023-03-30T09:44:55.728Z,79.96
2023-03-30T09:47:26.047Z,78.35
2023-03-30T09:49:58.799Z,78.04
2023-03-30T09:52:28.482Z,77.70
2023-03-30T09:54:57.365Z,76.52
2023-03-30T09:57:28.648Z,76.01
2023-03-30T09:59:59.885Z,75.54
2023-03-30T10:02:31.082Z,75.70
2023-03-30T10:05:04.182Z,75.83
2023-03-30T10:07:34.387Z,75.65
2023-03-30T10:10:14.463Z,74.11
2023-03-30T10:12:42.334Z,71.83
2023-03-30T10:15:16.804Z,71.23
2023-03-30T10:17:46.899Z,70.95
2023-03-30T10:20:18.260Z,68.28
2023-03-30T10:22:51.760Z,67.40
2023-03-30T10:25:23.654Z,65.53
2023-03-30T10:27:53.566Z,60.89
2023-03-30T10:30:25.844Z,58.94
2023-03-30T10:32:54.655Z,56.17
2023-03-30T10:35:24.987Z,56.34
2023-03-30T10:37:54.177Z,55.50
2023-03-30T10:40:24.640Z,54.85
2023-03-30T10:42:55.831Z,54.91
2023-03-30T10:45:29.712Z,52.73
2023-03-30T10:48:08.110Z,52.70
2023-03-30T10:50:41.878Z,51.45
2023-03-30T10:53:22.801Z,51.41
2023-03-30T10:55:55.982Z,50.17
2023-03-30T10:58:36.441Z,48.29
2023-03-30T11:01:13.645Z,49.37
2023-03-30T11:03:46.107Z,48.35
2023-03-30T11:06:18.324Z,47.83
2023-03-30T11:08:48.018Z,45.85
2023-03-30T11:11:19.684Z,46.52
2023-03-30T11:13:50.566Z,45.33
2023-03-30T11:16:22.509Z,44.95
2023-03-30T11:18:54.440Z,44.12
2023-03-30T11:21:27.798Z,42.73
2023-03-30T11:23:57.097Z,43.53
2023-03-30T11:26:31.404Z,43.75
2023-03-30T11:29:10.022Z,44.71
2023-03-30T11:31:48.553Z,46.32
2023-03-30T11:34:21.737Z,46.63
2023-03-30T11:36:55.744Z,47.81
2023-03-30T11:39:32.121Z,49.75
2023-03-30T11:42:06.375Z,49.64
2023-03-30T11:44:34.434Z,49.70
2023-03-30T11:47:14.266Z,49.53
2023-03-30T11:49:48.943Z,49.71
2023-03-30T11:52:26.576Z,48.97
2023-03-30T11:55:20.911Z,47.99
2023-03-30T11:57:53.285Z,48.69
2023-03-30T12:00:29.399Z,46.20
2023-03-30T12:03:06.627Z,46.79
2023-03-30T12:05:36.548Z,45.78
2023-03-30T12:08:11.486Z,44.51
2023-03-30T12:10:41.380Z,44.21
2023-03-30T12:13:12.624Z,45.14
2023-03-30T12:15:46.038Z,46.41
2023-03-30T12:18:25.940Z,46.71
2023-03-30T12:20:56.781Z,46.54
2023-03-30T12:23:35.641Z,47.31
2023-03-30T12:26:10.150Z,47.61
2023-03-30T12:31:17.613Z,57.90
2023-03-30T12:33:48.844Z,62.84
2023-03-30T12:36:34.423Z,64.87
2023-03-30T12:39:03.802Z,66.00
2023-03-30T12:41:41.485Z,64.93
2023-03-30T12:44:35.235Z,64.70
2023-03-30T12:47:14.255Z,65.07
2023-03-30T12:49:55.189Z,64.29
2023-03-30T12:52:32.552Z,62.85
2023-03-30T12:55:16.769Z,61.16
2023-03-30T12:57:56.250Z,61.78
2023-03-30T13:00:55.919Z,61.64
2023-03-30T13:03:31.494Z,62.27
2023-03-30T13:06:02.124Z,63.87
2023-03-30T13:08:33.645Z,65.29
2023-03-30T13:11:14.790Z,66.31
2023-03-30T13:13:56.974Z,64.21
2023-03-30T13:16:46.824Z,61.16
2023-03-30T13:19:21.723Z,60.62
2023-03-30T13:21:57.259Z,58.05
2023-03-30T13:24:36.945Z,55.94
2023-03-30T13:27:27.193Z,56.58
2023-03-30T13:29:57.035Z,56.57
2023-03-30T13:32:33.403Z,53.79
2023-03-30T13:35:27.811Z,55.42
2023-03-30T13:38:24.144Z,52.85
2023-03-30T13:41:04.415Z,50.90
2023-03-30T13:43:41.077Z,51.19
2023-03-30T13:46:17.544Z,50.50
2023-03-30T13:48:56.935Z,50.33
2023-03-30T13:51:27.371Z,51.93
2023-03-30T13:53:59.110Z,52.18
2023-03-30T13:56:27.375Z,56.81
2023-03-30T13:59:00.437Z,59.89
2023-03-30T14:01:28.408Z,64.56
2023-03-30T14:03:57.184Z,67.81
2023-03-30T14:06:27.410Z,69.46
2023-03-30T14:09:11.127Z,69.89
2023-03-30T14:11:40.595Z,71.62
2023-03-30T14:14:08.901Z,71.30
2023-03-30T14:16:38.124Z,71.92
2023-03-30T14:19:12.544Z,72.50
2023-03-30T14:21:43.644Z,72.86
2023-03-30T14:24:14.901Z,73.32
2023-03-30T14:26:42.913Z,73.71
2023-03-30T14:29:28.247Z,73.76
2023-03-30T14:32:08.319Z,74.02
2023-03-30T14:34:37.842Z,72.96
2023-03-30T14:37:07.097Z,73.22
2023-03-30T14:39:40.531Z,72.86
2023-03-30T14:42:13.653Z,73.14
2023-03-30T14:44:41.980Z,71.11
2023-03-30T14:47:09.875Z,70.00
2023-03-30T14:49:38.028Z,67.92
2023-03-30T14:52:10.512Z,68.34
2023-03-30T14:54:43.131Z,67.11
2023-03-30T14:57:17.241Z,66.14
2023-03-30T14:59:47.380Z,66.28
2023-03-30T15:02:20.106Z,65.46
2023-03-30T15:04:48.158Z,67.04
2023-03-30T15:07:16.741Z,65.79
2023-03-30T15:09:47.733Z,64.16
2023-03-30T15:15:04.963Z,64.94
2023-03-30T15:17:33.588Z,65.04
2023-03-30T15:20:02.083Z,65.22
2023-03-30T15:22:33.021Z,63.85
2023-03-30T15:25:02.366Z,65.00
2023-03-30T15:27:30.529Z,64.99
2023-03-30T15:30:01.686Z,64.77
2023-03-30T15:32:35.317Z,65.16
2023-03-30T15:35:09.549Z,64.86
2023-03-30T15:37:37.524Z,64.65
2023-03-30T15:40:30.274Z,64.09
2023-03-30T15:43:19.685Z,63.73
2023-03-30T15:45:49.763Z,62.90
2023-03-30T15:48:21.566Z,60.65
2023-03-30T15:50:52.702Z,61.08
2023-03-30T15:53:31.984Z,59.99
2023-03-30T15:56:00.488Z,62.03
2023-03-30T15:58:29.365Z,63.52
2023-03-30T16:00:57.701Z,64.87
2023-03-30T16:03:40.370Z,63.43
2023-03-30T16:06:08.764Z,62.68
2023-03-30T16:08:41.955Z,62.85
2023-03-30T16:11:10.828Z,63.46
2023-03-30T16:13:42.266Z,64.07
2023-03-30T16:16:11.136Z,63.03
2023-03-30T16:18:42.374Z,63.02
2023-03-30T16:21:10.985Z,63.58
2023-03-30T16:23:39.001Z,62.40
2023-03-30T16:26:08.061Z,61.17
2023-03-30T16:28:36.094Z,61.57
2023-03-30T16:31:07.849Z,60.26
2023-03-30T16:33:35.691Z,60.39
2023-03-30T16:36:05.495Z,61.39
2023-03-30T16:38:33.404Z,61.35
2023-03-30T16:41:02.306Z,62.04
2023-03-30T16:43:30.499Z,62.61
2023-03-30T16:45:58.375Z,63.72
2023-03-30T16:48:26.995Z,64.06
2023-03-30T16:50:56.659Z,64.64
2023-03-30T16:53:25.862Z,65.30
2023-03-30T16:55:53.629Z,65.97
2023-03-30T16:58:21.571Z,66.25
2023-03-30T17:00:51.554Z,66.42
2023-03-30T17:03:20.409Z,66.55
2023-03-30T17:05:49.313Z,66.51
2023-03-30T17:08:21.878Z,66.73
2023-03-30T17:10:52.068Z,67.13
2023-03-30T17:13:20.222Z,66.95
2023-03-30T17:15:48.091Z,67.25
2023-03-30T17:18:17.054Z,67.35
2023-03-30T17:20:48.173Z,67.35
2023-03-30T17:23:16.896Z,67.24
2023-03-30T17:25:49.417Z,67.28
2023-03-30T17:28:23.268Z,67.37
2023-03-30T17:30:52.574Z,66.84
2023-03-30T17:33:28.606Z,66.81
2023-03-30T17:35:58.044Z,67.19
2023-03-30T17:38:25.939Z,67.34
2023-03-30T17:40:53.730Z,67.37
2023-03-30T17:43:23.164Z,66.96
2023-03-30T17:45:50.998Z,67.33
2023-03-30T17:48:20.368Z,67.30
2023-03-30T17:50:49.762Z,67.53
2023-03-30T17:53:18.511Z,67.45
2023-03-30T17:55:47.134Z,67.52
2023-03-30T17:58:18.185Z,67.70
2023-03-30T18:00:48.634Z,67.64
2023-03-30T18:03:17.150Z,67.67
2023-03-30T18:05:46.044Z,67.79
2023-03-30T18:08:17.602Z,67.28
2023-03-30T18:10:47.917Z,66.84
2023-03-30T18:13:16.236Z,66.81
2023-03-30T18:15:45.946Z,67.04
2023-03-30T18:18:22.470Z,67.63
2023-03-30T18:20:51.234Z,68.49
2023-03-30T18:23:19.414Z,68.82
2023-03-30T18:25:47.697Z,68.69
2023-03-30T18:28:18.026Z,68.80
2023-03-30T18:30:46.442Z,68.94
2023-03-30T18:33:17.288Z,68.99
2023-03-30T18:35:46.796Z,69.00
2023-03-30T18:38:15.490Z,69.07
2023-03-30T18:40:45.339Z,69.24
2023-03-30T18:43:13.635Z,69.51
2023-03-30T18:45:43.042Z,69.09
2023-03-30T18:48:17.214Z,69.21
2023-03-30T18:50:47.113Z,69.49
2023-03-30T18:53:16.056Z,69.80
2023-03-30T18:55:46.361Z,69.59
2023-03-30T18:58:15.340Z,69.55
2023-03-30T19:00:43.724Z,70.07
2023-03-30T19:03:13.220Z,70.30
2023-03-30T19:05:41.955Z,69.81
2023-03-30T19:08:12.809Z,70.01
2023-03-30T19:10:41.908Z,70.03
2023-03-30T19:13:12.482Z,69.38
2023-03-30T19:15:40.310Z,69.28
2023-03-30T19:18:08.497Z,69.67
2023-03-30T19:20:39.750Z,69.76
2023-03-30T19:23:08.032Z,69.22
2023-03-30T19:25:37.331Z,69.23
2023-03-30T19:28:05.597Z,68.43
2023-03-30T19:30:35.429Z,68.31
2023-03-30T19:33:07.825Z,68.14
2023-03-30T19:35:35.752Z,68.03
2023-03-30T19:38:03.959Z,68.25
2023-03-30T19:40:31.881Z,67.70
2023-03-30T19:43:01.120Z,68.22
2023-03-30T19:45:28.953Z,68.02
2023-03-30T19:47:56.803Z,67.82
2023-03-30T19:50:25.231Z,67.83
2023-03-30T19:52:54.920Z,67.56
2023-03-30T19:55:22.848Z,67.74
2023-03-30T19:57:50.646Z,67.82
2023-03-30T20:00:20.553Z,68.06
2023-03-30T20:02:50.737Z,68.25
2023-03-30T20:05:19.610Z,67.61
2023-03-30T20:07:48.021Z,67.17
2023-03-30T20:10:18.866Z,66.74
2023-03-30T20:12:47.783Z,66.77
2023-03-30T20:15:16.181Z,66.87
2023-03-30T20:17:45.717Z,66.93
2023-03-30T20:20:17.062Z,66.73
2023-03-30T20:22:46.433Z,66.52
2023-03-30T20:25:15.585Z,66.52
2023-03-30T20:27:43.366Z,66.24
2023-03-30T20:30:12.696Z,66.69
2023-03-30T20:32:40.597Z,66.51
2023-03-30T20:35:10.458Z,66.68
2023-03-30T20:37:39.146Z,67.15
2023-03-30T20:40:10.248Z,67.23
2023-03-30T20:42:39.867Z,67.18
2023-03-30T20:45:09.265Z,67.09
2023-03-30T20:47:37.176Z,67.13
2023-03-30T20:50:05.805Z,67.22
2023-03-30T20:52:35.095Z,67.11
2023-03-30T20:55:02.849Z,67.70
2023-03-30T20:57:30.729Z,67.57
2023-03-30T21:00:09.621Z,67.68
2023-03-30T21:02:37.565Z,68.32
2023-03-30T21:05:06.037Z,68.20
2023-03-30T21:07:38.172Z,68.57
2023-03-30T21:10:07.494Z,68.82
2023-03-30T21:12:35.302Z,68.90
2023-03-30T21:15:04.025Z,68.36
2023-03-30T21:17:32.095Z,68.43
2023-03-30T21:20:00.341Z,68.14
2023-03-30T21:22:29.896Z,68.24
2023-03-30T21:24:59.086Z,68.86
2023-03-30T21:27:28.031Z,68.76
2023-03-30T21:29:56.032Z,68.67
2023-03-30T21:32:23.889Z,69.16
2023-03-30T21:34:52.065Z,69.08
2023-03-30T21:37:20.308Z,68.76
2023-03-30T21:39:49.385Z,68.92
2023-03-30T21:42:19.067Z,69.02
2023-03-30T21:44:47.358Z,68.60
2023-03-30T21:47:16.797Z,68.76
2023-03-30T21:49:44.821Z,68.74
2023-03-30T21:52:12.662Z,68.67
2023-03-30T21:54:40.890Z,69.09
2023-03-30T21:57:08.870Z,68.78
2023-03-30T21:59:38.236Z,68.62
2023-03-30T22:02:06.209Z,68.17
2023-03-30T22:04:34.209Z,68.58
2023-03-30T22:07:02.032Z,69.17
2023-03-30T22:09:30.188Z,69.21
2023-03-30T22:11:58.134Z,70.54
2023-03-30T22:14:26.235Z,70.81
2023-03-30T22:16:57.966Z,72.07
2023-03-30T22:19:25.912Z,71.73
2023-03-30T22:21:53.971Z,72.85
2023-03-30T22:24:21.769Z,73.26
2023-03-30T22:26:50.104Z,73.55
2023-03-30T22:29:20.781Z,73.47
2023-03-30T22:31:49.130Z,74.07
2023-03-30T22:34:18.381Z,74.24
2023-03-30T22:36:46.214Z,74.71
2023-03-30T22:39:14.371Z,74.55
2023-03-30T22:41:42.197Z,74.71
2023-03-30T22:44:10.278Z,74.60
2023-03-30T22:46:38.111Z,75.24
2023-03-30T22:49:05.949Z,75.56
2023-03-30T22:51:38.341Z,75.56
2023-03-30T22:54:06.404Z,75.59
2023-03-30T22:56:34.209Z,75.20
2023-03-30T22:59:02.127Z,75.80
2023-03-30T23:01:32.090Z,75.75
2023-03-30T23:04:00.629Z,76.20
2023-03-30T23:06:28.487Z,76.48
2023-03-30T23:08:57.711Z,76.80
2023-03-30T23:11:26.476Z,76.32
2023-03-30T23:13:54.401Z,76.99
2023-03-30T23:16:22.390Z,77.38
2023-03-30T23:18:50.319Z,76.73
2023-03-30T23:21:18.248Z,77.26
2023-03-30T23:23:46.358Z,77.86
2023-03-30T23:26:15.653Z,77.56
2023-03-30T23:28:43.667Z,78.06
2023-03-30T23:31:12.993Z,78.11
2023-03-30T23:33:41.039Z,78.37
2023-03-30T23:36:10.108Z,78.10
2023-03-30T23:38:38.344Z,78.37
2023-03-30T23:41:07.803Z,79.09
2023-03-30T23:43:37.040Z,78.58
2023-03-30T23:46:05.368Z,79.13
2023-03-30T23:48:33.781Z,79.77
2023-03-30T23:51:01.731Z,79.21
2023-03-30T23:53:29.555Z,79.31
2023-03-30T23:55:58.235Z,80.26
2023-03-30T23:58:26.444Z,80.31
